sensor_id;sensor_type;location;lat;lon;timestamp;P1;durP1;ratioP1;P2;durP2;ratioP2
6095;SDS011;25081;42.698;23.298;2023-04-30T00:01:42;17.20;;;11.80;;
6095;SDS011;25081;42.698;23.298;2023-04-30T00:03:55;14.80;;;11.30;;
6095;SDS011;25081;42.698;23.298;2023-04-30T00:06:05;17.30;;;10.50;;
6095;SDS011;25081;42.698;23.298;2023-04-30T00:08:16;20.90;;;11.47;;
6095;SDS011;25081;42.698;23.298;2023-04-30T00:10:26;15.47;;;10.43;;
6095;SDS011;25081;42.698;23.298;2023-04-30T00:12:37;20.65;;;11.60;;
6095;SDS011;25081;42.698;23.298;2023-04-30T00:14:48;17.23;;;11.20;;
6095;SDS011;25081;42.698;23.298;2023-04-30T00:16:59;19.33;;;11.67;;
6095;SDS011;25081;42.698;23.298;2023-04-30T00:19:09;19.40;;;12.73;;
6095;SDS011;25081;42.698;23.298;2023-04-30T00:21:20;20.82;;;13.00;;
6095;SDS011;25081;42.698;23.298;2023-04-30T00:23:31;20.30;;;13.17;;
6095;SDS011;25081;42.698;23.298;2023-04-30T00:25:41;18.20;;;12.67;;
6095;SDS011;25081;42.698;23.298;2023-04-30T00:27:52;21.45;;;13.55;;
6095;SDS011;25081;42.698;23.298;2023-04-30T00:30:04;24.20;;;14.90;;
6095;SDS011;25081;42.698;23.298;2023-04-30T00:32:16;17.27;;;11.63;;
6095;SDS011;25081;42.698;23.298;2023-04-30T00:34:26;20.40;;;12.37;;
6095;SDS011;25081;42.698;23.298;2023-04-30T00:36:37;18.10;;;11.78;;
6095;SDS011;25081;42.698;23.298;2023-04-30T00:38:48;18.40;;;12.07;;
6095;SDS011;25081;42.698;23.298;2023-04-30T00:40:59;20.77;;;13.27;;
6095;SDS011;25081;42.698;23.298;2023-04-30T00:43:09;19.32;;;12.13;;
6095;SDS011;25081;42.698;23.298;2023-04-30T00:45:20;27.30;;;13.13;;
6095;SDS011;25081;42.698;23.298;2023-04-30T00:47:31;23.20;;;12.50;;
6095;SDS011;25081;42.698;23.298;2023-04-30T00:49:41;21.77;;;12.63;;
6095;SDS011;25081;42.698;23.298;2023-04-30T00:51:52;20.12;;;12.73;;
6095;SDS011;25081;42.698;23.298;2023-04-30T00:54:02;21.93;;;13.37;;
6095;SDS011;25081;42.698;23.298;2023-04-30T00:56:13;16.25;;;11.43;;
6095;SDS011;25081;42.698;23.298;2023-04-30T00:58:24;17.75;;;12.28;;
6095;SDS011;25081;42.698;23.298;2023-04-30T01:00:35;17.75;;;11.53;;
6095;SDS011;25081;42.698;23.298;2023-04-30T01:02:45;20.00;;;11.45;;
6095;SDS011;25081;42.698;23.298;2023-04-30T01:04:55;20.45;;;11.25;;
6095;SDS011;25081;42.698;23.298;2023-04-30T01:07:06;22.20;;;12.95;;
6095;SDS011;25081;42.698;23.298;2023-04-30T01:09:17;23.98;;;12.73;;
6095;SDS011;25081;42.698;23.298;2023-04-30T01:11:30;17.35;;;11.68;;
6095;SDS011;25081;42.698;23.298;2023-04-30T01:13:43;18.73;;;11.07;;
6095;SDS011;25081;42.698;23.298;2023-04-30T01:15:53;17.50;;;12.70;;
6095;SDS011;25081;42.698;23.298;2023-04-30T01:18:04;16.37;;;11.20;;
6095;SDS011;25081;42.698;23.298;2023-04-30T01:20:14;15.47;;;12.53;;
6095;SDS011;25081;42.698;23.298;2023-04-30T01:22:29;17.07;;;11.75;;
6095;SDS011;25081;42.698;23.298;2023-04-30T01:24:48;17.90;;;11.18;;
6095;SDS011;25081;42.698;23.298;2023-04-30T01:27:05;23.65;;;12.55;;
6095;SDS011;25081;42.698;23.298;2023-04-30T01:29:14;17.87;;;11.60;;
6095;SDS011;25081;42.698;23.298;2023-04-30T01:31:26;19.77;;;11.38;;
6095;SDS011;25081;42.698;23.298;2023-04-30T01:33:36;17.62;;;11.18;;
6095;SDS011;25081;42.698;23.298;2023-04-30T01:36:01;19.10;;;12.10;;
6095;SDS011;25081;42.698;23.298;2023-04-30T01:38:08;20.23;;;11.93;;
6095;SDS011;25081;42.698;23.298;2023-04-30T01:40:21;15.75;;;10.78;;
6095;SDS011;25081;42.698;23.298;2023-04-30T01:42:34;15.32;;;10.15;;
6095;SDS011;25081;42.698;23.298;2023-04-30T01:44:48;15.70;;;9.60;;
6095;SDS011;25081;42.698;23.298;2023-04-30T01:47:01;17.73;;;10.35;;
6095;SDS011;25081;42.698;23.298;2023-04-30T01:49:14;13.72;;;9.30;;
6095;SDS011;25081;42.698;23.298;2023-04-30T01:51:24;17.10;;;9.23;;
6095;SDS011;25081;42.698;23.298;2023-04-30T01:53:36;15.60;;;10.50;;
6095;SDS011;25081;42.698;23.298;2023-04-30T01:55:47;18.17;;;9.65;;
6095;SDS011;25081;42.698;23.298;2023-04-30T01:57:57;16.73;;;10.98;;
6095;SDS011;25081;42.698;23.298;2023-04-30T02:00:09;13.48;;;10.25;;
6095;SDS011;25081;42.698;23.298;2023-04-30T02:02:19;19.23;;;10.50;;
6095;SDS011;25081;42.698;23.298;2023-04-30T02:04:30;16.27;;;10.70;;
6095;SDS011;25081;42.698;23.298;2023-04-30T02:06:41;17.67;;;10.93;;
6095;SDS011;25081;42.698;23.298;2023-04-30T02:08:52;16.87;;;10.43;;
6095;SDS011;25081;42.698;23.298;2023-04-30T02:11:02;15.15;;;10.13;;
6095;SDS011;25081;42.698;23.298;2023-04-30T02:13:13;12.82;;;9.08;;
6095;SDS011;25081;42.698;23.298;2023-04-30T02:15:23;16.77;;;10.50;;
6095;SDS011;25081;42.698;23.298;2023-04-30T02:17:35;14.83;;;10.65;;
6095;SDS011;25081;42.698;23.298;2023-04-30T02:19:45;16.60;;;9.70;;
6095;SDS011;25081;42.698;23.298;2023-04-30T02:21:56;15.23;;;9.80;;
6095;SDS011;25081;42.698;23.298;2023-04-30T02:24:07;15.70;;;10.28;;
6095;SDS011;25081;42.698;23.298;2023-04-30T02:26:17;14.90;;;10.28;;
6095;SDS011;25081;42.698;23.298;2023-04-30T02:28:28;17.02;;;10.65;;
6095;SDS011;25081;42.698;23.298;2023-04-30T02:30:39;20.23;;;9.93;;
6095;SDS011;25081;42.698;23.298;2023-04-30T02:32:49;13.93;;;9.05;;
6095;SDS011;25081;42.698;23.298;2023-04-30T02:35:00;14.30;;;9.95;;
6095;SDS011;25081;42.698;23.298;2023-04-30T02:37:11;16.07;;;10.35;;
6095;SDS011;25081;42.698;23.298;2023-04-30T02:39:21;17.48;;;10.18;;
6095;SDS011;25081;42.698;23.298;2023-04-30T02:41:32;14.33;;;9.90;;
6095;SDS011;25081;42.698;23.298;2023-04-30T02:43:42;12.80;;;9.73;;
6095;SDS011;25081;42.698;23.298;2023-04-30T02:45:53;14.87;;;10.03;;
6095;SDS011;25081;42.698;23.298;2023-04-30T02:48:03;20.12;;;11.43;;
6095;SDS011;25081;42.698;23.298;2023-04-30T02:50:14;27.93;;;12.07;;
6095;SDS011;25081;42.698;23.298;2023-04-30T02:52:25;25.45;;;12.53;;
6095;SDS011;25081;42.698;23.298;2023-04-30T02:54:35;22.22;;;12.40;;
6095;SDS011;25081;42.698;23.298;2023-04-30T02:56:46;18.12;;;10.85;;
6095;SDS011;25081;42.698;23.298;2023-04-30T02:58:57;17.90;;;11.18;;
6095;SDS011;25081;42.698;23.298;2023-04-30T03:01:08;20.52;;;11.28;;
6095;SDS011;25081;42.698;23.298;2023-04-30T03:03:18;18.07;;;10.45;;
6095;SDS011;25081;42.698;23.298;2023-04-30T03:05:29;19.02;;;9.43;;
6095;SDS011;25081;42.698;23.298;2023-04-30T03:07:39;20.72;;;10.60;;
6095;SDS011;25081;42.698;23.298;2023-04-30T03:09:50;17.93;;;10.20;;
6095;SDS011;25081;42.698;23.298;2023-04-30T03:12:00;13.13;;;9.63;;
6095;SDS011;25081;42.698;23.298;2023-04-30T03:14:11;11.05;;;8.05;;
6095;SDS011;25081;42.698;23.298;2023-04-30T03:16:22;14.20;;;8.10;;
6095;SDS011;25081;42.698;23.298;2023-04-30T03:18:32;12.97;;;7.67;;
6095;SDS011;25081;42.698;23.298;2023-04-30T03:20:43;12.40;;;7.60;;
6095;SDS011;25081;42.698;23.298;2023-04-30T03:22:53;15.47;;;8.90;;
6095;SDS011;25081;42.698;23.298;2023-04-30T03:25:05;14.07;;;8.00;;
6095;SDS011;25081;42.698;23.298;2023-04-30T03:27:16;11.12;;;7.72;;
6095;SDS011;25081;42.698;23.298;2023-04-30T03:29:26;10.00;;;7.03;;
6095;SDS011;25081;42.698;23.298;2023-04-30T03:31:37;12.13;;;6.97;;
6095;SDS011;25081;42.698;23.298;2023-04-30T03:33:47;16.82;;;6.90;;
6095;SDS011;25081;42.698;23.298;2023-04-30T03:35:58;11.12;;;6.50;;
6095;SDS011;25081;42.698;23.298;2023-04-30T03:38:08;10.38;;;5.83;;
6095;SDS011;25081;42.698;23.298;2023-04-30T03:40:19;8.80;;;6.42;;
6095;SDS011;25081;42.698;23.298;2023-04-30T03:42:30;8.75;;;5.90;;
6095;SDS011;25081;42.698;23.298;2023-04-30T03:44:41;10.65;;;5.83;;
6095;SDS011;25081;42.698;23.298;2023-04-30T03:46:52;6.12;;;5.25;;
6095;SDS011;25081;42.698;23.298;2023-04-30T03:49:02;6.90;;;4.97;;
6095;SDS011;25081;42.698;23.298;2023-04-30T03:51:13;6.60;;;4.65;;
6095;SDS011;25081;42.698;23.298;2023-04-30T03:53:23;9.97;;;5.07;;
6095;SDS011;25081;42.698;23.298;2023-04-30T03:55:34;7.67;;;5.30;;
6095;SDS011;25081;42.698;23.298;2023-04-30T03:57:44;5.70;;;5.00;;
6095;SDS011;25081;42.698;23.298;2023-04-30T03:59:55;6.55;;;5.30;;
6095;SDS011;25081;42.698;23.298;2023-04-30T04:02:06;8.50;;;6.50;;
6095;SDS011;25081;42.698;23.298;2023-04-30T04:04:16;6.80;;;5.47;;
6095;SDS011;25081;42.698;23.298;2023-04-30T04:06:27;10.00;;;5.60;;
6095;SDS011;25081;42.698;23.298;2023-04-30T04:08:37;10.43;;;6.40;;
6095;SDS011;25081;42.698;23.298;2023-04-30T04:10:48;12.93;;;5.50;;
6095;SDS011;25081;42.698;23.298;2023-04-30T04:12:59;8.38;;;4.80;;
6095;SDS011;25081;42.698;23.298;2023-04-30T04:15:10;7.00;;;5.50;;
6095;SDS011;25081;42.698;23.298;2023-04-30T04:17:21;7.63;;;5.57;;
6095;SDS011;25081;42.698;23.298;2023-04-30T04:19:31;8.67;;;6.10;;
6095;SDS011;25081;42.698;23.298;2023-04-30T04:21:42;8.07;;;5.60;;
6095;SDS011;25081;42.698;23.298;2023-04-30T04:23:52;8.97;;;5.63;;
6095;SDS011;25081;42.698;23.298;2023-04-30T04:26:03;8.47;;;5.90;;
6095;SDS011;25081;42.698;23.298;2023-04-30T04:28:13;9.73;;;5.80;;
6095;SDS011;25081;42.698;23.298;2023-04-30T04:30:24;7.07;;;5.10;;
6095;SDS011;25081;42.698;23.298;2023-04-30T04:32:34;9.73;;;5.00;;
6095;SDS011;25081;42.698;23.298;2023-04-30T04:34:46;6.30;;;4.83;;
6095;SDS011;25081;42.698;23.298;2023-04-30T04:36:57;6.57;;;4.87;;
6095;SDS011;25081;42.698;23.298;2023-04-30T04:39:07;7.83;;;5.70;;
6095;SDS011;25081;42.698;23.298;2023-04-30T04:41:18;8.40;;;5.90;;
6095;SDS011;25081;42.698;23.298;2023-04-30T04:43:29;10.20;;;5.97;;
6095;SDS011;25081;42.698;23.298;2023-04-30T04:45:40;7.77;;;5.40;;
6095;SDS011;25081;42.698;23.298;2023-04-30T04:47:50;10.03;;;5.90;;
6095;SDS011;25081;42.698;23.298;2023-04-30T04:50:01;8.27;;;4.93;;
6095;SDS011;25081;42.698;23.298;2023-04-30T04:52:11;10.50;;;5.53;;
6095;SDS011;25081;42.698;23.298;2023-04-30T04:54:22;10.50;;;5.53;;
6095;SDS011;25081;42.698;23.298;2023-04-30T04:56:33;7.40;;;5.10;;
6095;SDS011;25081;42.698;23.298;2023-04-30T04:58:43;6.90;;;5.47;;
6095;SDS011;25081;42.698;23.298;2023-04-30T05:00:54;7.47;;;5.50;;
6095;SDS011;25081;42.698;23.298;2023-04-30T05:03:05;9.57;;;5.20;;
6095;SDS011;25081;42.698;23.298;2023-04-30T05:05:16;17.63;;;6.03;;
6095;SDS011;25081;42.698;23.298;2023-04-30T05:07:26;7.93;;;5.57;;
6095;SDS011;25081;42.698;23.298;2023-04-30T05:09:37;6.67;;;5.27;;
6095;SDS011;25081;42.698;23.298;2023-04-30T05:11:47;7.00;;;5.37;;
6095;SDS011;25081;42.698;23.298;2023-04-30T05:13:58;8.93;;;6.20;;
6095;SDS011;25081;42.698;23.298;2023-04-30T05:16:08;9.10;;;5.83;;
6095;SDS011;25081;42.698;23.298;2023-04-30T05:18:19;9.40;;;5.60;;
6095;SDS011;25081;42.698;23.298;2023-04-30T05:20:29;8.63;;;6.00;;
6095;SDS011;25081;42.698;23.298;2023-04-30T05:22:40;12.23;;;6.03;;
6095;SDS011;25081;42.698;23.298;2023-04-30T05:24:50;9.00;;;6.00;;
6095;SDS011;25081;42.698;23.298;2023-04-30T05:27:01;7.60;;;5.53;;
6095;SDS011;25081;42.698;23.298;2023-04-30T05:29:12;9.97;;;6.53;;
6095;SDS011;25081;42.698;23.298;2023-04-30T05:31:22;10.20;;;6.10;;
6095;SDS011;25081;42.698;23.298;2023-04-30T05:33:33;8.93;;;6.00;;
6095;SDS011;25081;42.698;23.298;2023-04-30T05:35:44;10.93;;;6.40;;
6095;SDS011;25081;42.698;23.298;2023-04-30T05:37:55;9.73;;;7.03;;
6095;SDS011;25081;42.698;23.298;2023-04-30T05:40:08;11.33;;;6.40;;
6095;SDS011;25081;42.698;23.298;2023-04-30T05:42:19;10.07;;;6.90;;
6095;SDS011;25081;42.698;23.298;2023-04-30T05:44:30;10.07;;;7.23;;
6095;SDS011;25081;42.698;23.298;2023-04-30T05:46:40;13.50;;;8.03;;
6095;SDS011;25081;42.698;23.298;2023-04-30T05:48:51;9.70;;;6.43;;
6095;SDS011;25081;42.698;23.298;2023-04-30T05:51:01;9.83;;;7.10;;
6095;SDS011;25081;42.698;23.298;2023-04-30T05:53:13;9.20;;;7.27;;
6095;SDS011;25081;42.698;23.298;2023-04-30T05:55:23;19.83;;;7.93;;
6095;SDS011;25081;42.698;23.298;2023-04-30T05:57:34;10.47;;;7.60;;
6095;SDS011;25081;42.698;23.298;2023-04-30T05:59:44;30.60;;;18.60;;
6095;SDS011;25081;42.698;23.298;2023-04-30T06:01:55;13.67;;;9.93;;
6095;SDS011;25081;42.698;23.298;2023-04-30T06:04:05;10.90;;;7.30;;
6095;SDS011;25081;42.698;23.298;2023-04-30T06:06:16;12.20;;;7.50;;
6095;SDS011;25081;42.698;23.298;2023-04-30T06:08:26;10.77;;;7.67;;
6095;SDS011;25081;42.698;23.298;2023-04-30T06:10:37;10.30;;;7.50;;
6095;SDS011;25081;42.698;23.298;2023-04-30T06:12:48;11.03;;;8.00;;
6095;SDS011;25081;42.698;23.298;2023-04-30T06:14:58;18.77;;;7.97;;
6095;SDS011;25081;42.698;23.298;2023-04-30T06:17:09;10.87;;;7.97;;
6095;SDS011;25081;42.698;23.298;2023-04-30T06:19:20;11.50;;;8.00;;
6095;SDS011;25081;42.698;23.298;2023-04-30T06:21:30;12.33;;;8.30;;
6095;SDS011;25081;42.698;23.298;2023-04-30T06:23:41;12.77;;;7.77;;
6095;SDS011;25081;42.698;23.298;2023-04-30T06:25:51;9.80;;;7.47;;
6095;SDS011;25081;42.698;23.298;2023-04-30T06:28:02;15.23;;;8.63;;
6095;SDS011;25081;42.698;23.298;2023-04-30T06:30:13;13.10;;;8.73;;
6095;SDS011;25081;42.698;23.298;2023-04-30T06:32:24;19.17;;;10.17;;
6095;SDS011;25081;42.698;23.298;2023-04-30T06:34:34;11.53;;;8.17;;
6095;SDS011;25081;42.698;23.298;2023-04-30T06:36:45;12.43;;;7.77;;
6095;SDS011;25081;42.698;23.298;2023-04-30T06:38:55;12.20;;;7.93;;
6095;SDS011;25081;42.698;23.298;2023-04-30T06:41:06;8.80;;;6.87;;
6095;SDS011;25081;42.698;23.298;2023-04-30T06:43:16;10.03;;;7.13;;
6095;SDS011;25081;42.698;23.298;2023-04-30T06:45:27;8.90;;;6.77;;
6095;SDS011;25081;42.698;23.298;2023-04-30T06:47:38;12.53;;;7.60;;
6095;SDS011;25081;42.698;23.298;2023-04-30T06:49:48;8.90;;;6.97;;
6095;SDS011;25081;42.698;23.298;2023-04-30T06:51:59;9.83;;;7.43;;
6095;SDS011;25081;42.698;23.298;2023-04-30T06:54:09;13.17;;;8.43;;
6095;SDS011;25081;42.698;23.298;2023-04-30T06:56:20;15.33;;;8.13;;
6095;SDS011;25081;42.698;23.298;2023-04-30T06:58:30;12.20;;;7.97;;
6095;SDS011;25081;42.698;23.298;2023-04-30T07:00:41;11.03;;;7.90;;
6095;SDS011;25081;42.698;23.298;2023-04-30T07:02:51;8.50;;;7.50;;
6095;SDS011;25081;42.698;23.298;2023-04-30T07:05:02;16.33;;;9.30;;
6095;SDS011;25081;42.698;23.298;2023-04-30T07:07:12;13.70;;;8.10;;
6095;SDS011;25081;42.698;23.298;2023-04-30T07:09:23;11.20;;;7.73;;
6095;SDS011;25081;42.698;23.298;2023-04-30T07:11:33;14.13;;;8.07;;
6095;SDS011;25081;42.698;23.298;2023-04-30T07:13:44;10.20;;;7.93;;
6095;SDS011;25081;42.698;23.298;2023-04-30T07:15:54;12.50;;;8.23;;
6095;SDS011;25081;42.698;23.298;2023-04-30T07:18:05;30.33;;;19.30;;
6095;SDS011;25081;42.698;23.298;2023-04-30T07:20:15;10.73;;;8.13;;
6095;SDS011;25081;42.698;23.298;2023-04-30T07:22:26;21.40;;;10.60;;
6095;SDS011;25081;42.698;23.298;2023-04-30T07:24:36;11.23;;;8.20;;
6095;SDS011;25081;42.698;23.298;2023-04-30T07:26:47;10.53;;;7.83;;
6095;SDS011;25081;42.698;23.298;2023-04-30T07:28:57;11.43;;;8.50;;
6095;SDS011;25081;42.698;23.298;2023-04-30T07:31:08;12.30;;;8.37;;
6095;SDS011;25081;42.698;23.298;2023-04-30T07:33:18;13.53;;;8.57;;
6095;SDS011;25081;42.698;23.298;2023-04-30T07:35:28;12.33;;;8.60;;
6095;SDS011;25081;42.698;23.298;2023-04-30T07:37:39;13.87;;;8.37;;
6095;SDS011;25081;42.698;23.298;2023-04-30T07:39:50;13.23;;;8.00;;
6095;SDS011;25081;42.698;23.298;2023-04-30T07:42:00;11.17;;;7.47;;
6095;SDS011;25081;42.698;23.298;2023-04-30T07:44:11;11.67;;;7.33;;
6095;SDS011;25081;42.698;23.298;2023-04-30T07:46:21;11.13;;;7.90;;
6095;SDS011;25081;42.698;23.298;2023-04-30T07:48:32;13.50;;;7.67;;
6095;SDS011;25081;42.698;23.298;2023-04-30T07:50:43;11.50;;;7.67;;
6095;SDS011;25081;42.698;23.298;2023-04-30T07:52:53;10.93;;;7.20;;
6095;SDS011;25081;42.698;23.298;2023-04-30T07:55:04;9.63;;;6.90;;
6095;SDS011;25081;42.698;23.298;2023-04-30T07:57:15;10.30;;;5.80;;
6095;SDS011;25081;42.698;23.298;2023-04-30T07:59:26;13.83;;;6.10;;
6095;SDS011;25081;42.698;23.298;2023-04-30T08:01:36;9.27;;;6.23;;
6095;SDS011;25081;42.698;23.298;2023-04-30T08:03:47;10.00;;;5.83;;
6095;SDS011;25081;42.698;23.298;2023-04-30T08:05:57;6.83;;;4.70;;
6095;SDS011;25081;42.698;23.298;2023-04-30T08:08:08;8.00;;;4.47;;
6095;SDS011;25081;42.698;23.298;2023-04-30T08:10:18;10.27;;;6.10;;
6095;SDS011;25081;42.698;23.298;2023-04-30T08:12:29;7.60;;;4.70;;
6095;SDS011;25081;42.698;23.298;2023-04-30T08:14:40;6.87;;;5.63;;
6095;SDS011;25081;42.698;23.298;2023-04-30T08:16:50;10.20;;;6.40;;
6095;SDS011;25081;42.698;23.298;2023-04-30T08:19:01;7.57;;;6.23;;
6095;SDS011;25081;42.698;23.298;2023-04-30T08:21:11;8.67;;;5.40;;
6095;SDS011;25081;42.698;23.298;2023-04-30T08:23:22;8.80;;;6.00;;
6095;SDS011;25081;42.698;23.298;2023-04-30T08:25:33;7.20;;;5.33;;
6095;SDS011;25081;42.698;23.298;2023-04-30T08:27:43;7.80;;;4.83;;
6095;SDS011;25081;42.698;23.298;2023-04-30T08:29:54;6.00;;;4.33;;
6095;SDS011;25081;42.698;23.298;2023-04-30T08:32:05;6.10;;;4.80;;
6095;SDS011;25081;42.698;23.298;2023-04-30T08:34:16;7.00;;;4.63;;
6095;SDS011;25081;42.698;23.298;2023-04-30T08:36:26;7.10;;;5.03;;
6095;SDS011;25081;42.698;23.298;2023-04-30T08:38:37;12.07;;;7.17;;
6095;SDS011;25081;42.698;23.298;2023-04-30T08:40:48;6.13;;;4.70;;
6095;SDS011;25081;42.698;23.298;2023-04-30T08:42:59;6.53;;;4.40;;
6095;SDS011;25081;42.698;23.298;2023-04-30T08:45:09;7.03;;;4.30;;
6095;SDS011;25081;42.698;23.298;2023-04-30T08:47:21;7.40;;;4.10;;
6095;SDS011;25081;42.698;23.298;2023-04-30T08:49:31;7.87;;;4.63;;
6095;SDS011;25081;42.698;23.298;2023-04-30T08:51:41;6.97;;;4.30;;
6095;SDS011;25081;42.698;23.298;2023-04-30T08:53:52;9.70;;;4.87;;
6095;SDS011;25081;42.698;23.298;2023-04-30T08:56:02;9.40;;;4.03;;
6095;SDS011;25081;42.698;23.298;2023-04-30T08:58:14;6.60;;;4.13;;
6095;SDS011;25081;42.698;23.298;2023-04-30T09:00:25;5.60;;;4.03;;
6095;SDS011;25081;42.698;23.298;2023-04-30T09:02:37;5.17;;;4.07;;
6095;SDS011;25081;42.698;23.298;2023-04-30T09:04:48;5.70;;;4.10;;
6095;SDS011;25081;42.698;23.298;2023-04-30T09:06:59;6.10;;;3.83;;
6095;SDS011;25081;42.698;23.298;2023-04-30T09:09:10;5.80;;;4.40;;
6095;SDS011;25081;42.698;23.298;2023-04-30T09:11:21;5.93;;;4.37;;
6095;SDS011;25081;42.698;23.298;2023-04-30T09:13:40;6.50;;;4.27;;
6095;SDS011;25081;42.698;23.298;2023-04-30T09:15:50;5.17;;;4.60;;
6095;SDS011;25081;42.698;23.298;2023-04-30T09:18:11;4.47;;;4.07;;
6095;SDS011;25081;42.698;23.298;2023-04-30T09:20:21;4.47;;;3.30;;
6095;SDS011;25081;42.698;23.298;2023-04-30T09:22:31;6.10;;;5.00;;
6095;SDS011;25081;42.698;23.298;2023-04-30T09:24:45;6.13;;;3.83;;
6095;SDS011;25081;42.698;23.298;2023-04-30T09:26:55;6.87;;;4.53;;
6095;SDS011;25081;42.698;23.298;2023-04-30T09:29:06;4.17;;;3.40;;
6095;SDS011;25081;42.698;23.298;2023-04-30T09:31:19;4.43;;;3.50;;
6095;SDS011;25081;42.698;23.298;2023-04-30T09:33:29;4.27;;;3.83;;
6095;SDS011;25081;42.698;23.298;2023-04-30T09:35:41;4.33;;;3.80;;
6095;SDS011;25081;42.698;23.298;2023-04-30T09:37:52;4.47;;;3.30;;
6095;SDS011;25081;42.698;23.298;2023-04-30T09:40:03;5.70;;;3.60;;
6095;SDS011;25081;42.698;23.298;2023-04-30T09:42:14;6.20;;;3.97;;
6095;SDS011;25081;42.698;23.298;2023-04-30T09:44:28;4.50;;;3.17;;
6095;SDS011;25081;42.698;23.298;2023-04-30T09:46:38;5.40;;;4.20;;
6095;SDS011;25081;42.698;23.298;2023-04-30T09:48:56;5.10;;;3.83;;
6095;SDS011;25081;42.698;23.298;2023-04-30T09:51:06;4.67;;;4.27;;
6095;SDS011;25081;42.698;23.298;2023-04-30T09:53:17;4.50;;;3.73;;
6095;SDS011;25081;42.698;23.298;2023-04-30T09:55:27;4.83;;;4.03;;
6095;SDS011;25081;42.698;23.298;2023-04-30T09:57:37;5.13;;;3.83;;
6095;SDS011;25081;42.698;23.298;2023-04-30T09:59:48;4.27;;;3.73;;
6095;SDS011;25081;42.698;23.298;2023-04-30T10:01:59;5.93;;;4.40;;
6095;SDS011;25081;42.698;23.298;2023-04-30T10:04:09;4.20;;;3.30;;
6095;SDS011;25081;42.698;23.298;2023-04-30T10:06:20;5.00;;;3.87;;
6095;SDS011;25081;42.698;23.298;2023-04-30T10:08:32;5.27;;;3.80;;
6095;SDS011;25081;42.698;23.298;2023-04-30T10:10:42;4.43;;;3.27;;
6095;SDS011;25081;42.698;23.298;2023-04-30T10:12:53;4.03;;;3.30;;
6095;SDS011;25081;42.698;23.298;2023-04-30T10:15:04;9.67;;;3.90;;
6095;SDS011;25081;42.698;23.298;2023-04-30T10:17:14;4.97;;;3.77;;
6095;SDS011;25081;42.698;23.298;2023-04-30T10:19:25;4.03;;;3.63;;
6095;SDS011;25081;42.698;23.298;2023-04-30T10:21:35;6.63;;;4.10;;
6095;SDS011;25081;42.698;23.298;2023-04-30T10:23:46;6.47;;;3.30;;
6095;SDS011;25081;42.698;23.298;2023-04-30T10:25:56;5.70;;;3.63;;
6095;SDS011;25081;42.698;23.298;2023-04-30T10:28:07;9.50;;;4.87;;
6095;SDS011;25081;42.698;23.298;2023-04-30T10:30:17;5.77;;;3.87;;
6095;SDS011;25081;42.698;23.298;2023-04-30T10:32:29;5.80;;;4.17;;
6095;SDS011;25081;42.698;23.298;2023-04-30T10:34:43;8.13;;;4.77;;
6095;SDS011;25081;42.698;23.298;2023-04-30T10:36:55;8.90;;;5.90;;
6095;SDS011;25081;42.698;23.298;2023-04-30T10:39:06;4.97;;;4.47;;
6095;SDS011;25081;42.698;23.298;2023-04-30T10:41:16;6.60;;;5.00;;
6095;SDS011;25081;42.698;23.298;2023-04-30T10:43:28;7.00;;;5.13;;
6095;SDS011;25081;42.698;23.298;2023-04-30T10:45:40;6.10;;;5.47;;
6095;SDS011;25081;42.698;23.298;2023-04-30T10:47:50;7.23;;;5.10;;
6095;SDS011;25081;42.698;23.298;2023-04-30T10:50:06;5.73;;;4.10;;
6095;SDS011;25081;42.698;23.298;2023-04-30T10:52:26;5.40;;;4.00;;
6095;SDS011;25081;42.698;23.298;2023-04-30T10:54:36;5.93;;;4.07;;
6095;SDS011;25081;42.698;23.298;2023-04-30T10:56:47;4.33;;;3.83;;
6095;SDS011;25081;42.698;23.298;2023-04-30T10:58:58;3.90;;;3.50;;
6095;SDS011;25081;42.698;23.298;2023-04-30T11:01:10;5.13;;;4.13;;
6095;SDS011;25081;42.698;23.298;2023-04-30T11:03:19;5.30;;;4.27;;
6095;SDS011;25081;42.698;23.298;2023-04-30T11:05:36;5.50;;;3.83;;
6095;SDS011;25081;42.698;23.298;2023-04-30T11:07:47;4.47;;;3.90;;
6095;SDS011;25081;42.698;23.298;2023-04-30T11:09:57;6.57;;;3.33;;
6095;SDS011;25081;42.698;23.298;2023-04-30T11:12:13;4.07;;;3.63;;
6095;SDS011;25081;42.698;23.298;2023-04-30T11:14:22;4.10;;;3.20;;
6095;SDS011;25081;42.698;23.298;2023-04-30T11:16:33;5.73;;;4.37;;
6095;SDS011;25081;42.698;23.298;2023-04-30T11:18:44;4.60;;;3.70;;
6095;SDS011;25081;42.698;23.298;2023-04-30T11:20:55;7.70;;;4.00;;
6095;SDS011;25081;42.698;23.298;2023-04-30T11:23:09;5.70;;;4.27;;
6095;SDS011;25081;42.698;23.298;2023-04-30T11:25:20;7.73;;;5.73;;
6095;SDS011;25081;42.698;23.298;2023-04-30T11:27:30;7.60;;;4.20;;
6095;SDS011;25081;42.698;23.298;2023-04-30T11:29:41;5.27;;;3.83;;
6095;SDS011;25081;42.698;23.298;2023-04-30T11:31:51;6.80;;;4.03;;
6095;SDS011;25081;42.698;23.298;2023-04-30T11:34:02;5.83;;;3.80;;
6095;SDS011;25081;42.698;23.298;2023-04-30T11:36:13;6.10;;;3.27;;
6095;SDS011;25081;42.698;23.298;2023-04-30T11:38:26;4.03;;;3.30;;
6095;SDS011;25081;42.698;23.298;2023-04-30T11:40:36;4.00;;;3.33;;
6095;SDS011;25081;42.698;23.298;2023-04-30T11:42:46;5.67;;;3.53;;
6095;SDS011;25081;42.698;23.298;2023-04-30T11:45:02;4.30;;;3.23;;
6095;SDS011;25081;42.698;23.298;2023-04-30T11:47:14;3.87;;;3.30;;
6095;SDS011;25081;42.698;23.298;2023-04-30T11:49:24;5.73;;;3.60;;
6095;SDS011;25081;42.698;23.298;2023-04-30T11:51:35;4.10;;;3.10;;
6095;SDS011;25081;42.698;23.298;2023-04-30T11:53:45;4.07;;;3.40;;
6095;SDS011;25081;42.698;23.298;2023-04-30T11:55:56;3.57;;;3.07;;
6095;SDS011;25081;42.698;23.298;2023-04-30T11:58:08;5.13;;;3.40;;
6095;SDS011;25081;42.698;23.298;2023-04-30T12:00:18;5.50;;;3.97;;
6095;SDS011;25081;42.698;23.298;2023-04-30T12:02:29;5.50;;;3.40;;
6095;SDS011;25081;42.698;23.298;2023-04-30T12:04:39;5.27;;;3.67;;
6095;SDS011;25081;42.698;23.298;2023-04-30T12:06:50;4.63;;;3.30;;
6095;SDS011;25081;42.698;23.298;2023-04-30T12:09:01;4.50;;;3.50;;
6095;SDS011;25081;42.698;23.298;2023-04-30T12:11:21;4.93;;;3.73;;
6095;SDS011;25081;42.698;23.298;2023-04-30T12:13:31;4.60;;;3.60;;
6095;SDS011;25081;42.698;23.298;2023-04-30T12:15:42;4.53;;;3.53;;
6095;SDS011;25081;42.698;23.298;2023-04-30T12:17:54;5.00;;;4.00;;
6095;SDS011;25081;42.698;23.298;2023-04-30T12:20:06;6.43;;;4.07;;
6095;SDS011;25081;42.698;23.298;2023-04-30T12:22:17;5.20;;;4.10;;
6095;SDS011;25081;42.698;23.298;2023-04-30T12:24:28;4.80;;;3.90;;
6095;SDS011;25081;42.698;23.298;2023-04-30T12:26:41;4.33;;;3.90;;
6095;SDS011;25081;42.698;23.298;2023-04-30T12:28:51;5.13;;;3.97;;
6095;SDS011;25081;42.698;23.298;2023-04-30T12:31:02;5.40;;;3.80;;
6095;SDS011;25081;42.698;23.298;2023-04-30T12:33:15;6.20;;;3.80;;
6095;SDS011;25081;42.698;23.298;2023-04-30T12:35:26;5.90;;;3.50;;
6095;SDS011;25081;42.698;23.298;2023-04-30T12:37:37;4.20;;;3.70;;
6095;SDS011;25081;42.698;23.298;2023-04-30T12:39:56;4.90;;;3.60;;
6095;SDS011;25081;42.698;23.298;2023-04-30T12:42:07;4.80;;;3.67;;
6095;SDS011;25081;42.698;23.298;2023-04-30T12:44:18;4.80;;;3.60;;
6095;SDS011;25081;42.698;23.298;2023-04-30T12:46:28;4.33;;;3.20;;
6095;SDS011;25081;42.698;23.298;2023-04-30T12:48:43;6.20;;;3.70;;
6095;SDS011;25081;42.698;23.298;2023-04-30T12:50:54;4.50;;;3.80;;
6095;SDS011;25081;42.698;23.298;2023-04-30T12:53:04;6.97;;;3.60;;
6095;SDS011;25081;42.698;23.298;2023-04-30T12:55:15;3.87;;;3.00;;
6095;SDS011;25081;42.698;23.298;2023-04-30T12:57:26;5.07;;;3.20;;
6095;SDS011;25081;42.698;23.298;2023-04-30T12:59:37;4.83;;;3.30;;
6095;SDS011;25081;42.698;23.298;2023-04-30T13:01:48;6.90;;;4.47;;